createdAt,value
2019-03-10T00:00:37.787Z,9.47
2019-03-10T00:03:11.540Z,14.43
2019-03-10T00:05:45.279Z,14.50
2019-03-10T00:08:25.128Z,14.63
2019-03-10T00:10:58.816Z,12.27
2019-03-10T00:13:38.653Z,11.20
2019-03-10T00:16:12.307Z,9.97
2019-03-10T00:18:45.997Z,11.57
2019-03-10T00:21:19.651Z,12.83
2019-03-10T00:23:53.447Z,17.57
2019-03-10T00:26:27.087Z,10.67
2019-03-10T00:29:15.957Z,10.83
2019-03-10T00:31:49.706Z,8.20
2019-03-10T00:34:26.420Z,16.93
2019-03-10T00:37:00.181Z,11.37
2019-03-10T00:39:49.231Z,12.00
2019-03-10T00:42:45.170Z,13.90
2019-03-10T00:45:50.325Z,16.87
2019-03-10T00:48:49.856Z,21.67
2019-03-10T00:51:35.780Z,11.90
2019-03-10T00:54:09.590Z,10.30
2019-03-10T00:56:43.339Z,12.80
2019-03-10T00:59:17.103Z,9.50
2019-03-10T01:01:50.826Z,17.67
2019-03-10T01:04:24.880Z,16.37
2019-03-10T01:07:10.996Z,14.83
2019-03-10T01:09:45.107Z,8.57
2019-03-10T01:12:18.790Z,11.03
2019-03-10T01:15:10.439Z,7.10
2019-03-10T01:17:45.310Z,11.43
2019-03-10T01:20:19.063Z,17.13
2019-03-10T01:22:55.828Z,14.83
2019-03-10T01:25:29.555Z,10.77
2019-03-10T01:28:03.247Z,8.30
2019-03-10T01:30:48.977Z,7.97
2019-03-10T01:33:45.760Z,12.27
2019-03-10T01:36:21.323Z,10.80
2019-03-10T01:38:54.916Z,8.33
2019-03-10T01:41:28.526Z,13.03
2019-03-10T01:44:08.400Z,7.07
2019-03-10T01:46:42.099Z,9.20
2019-03-10T01:49:16.151Z,8.10
2019-03-10T01:51:50.050Z,14.50
2019-03-10T01:54:23.674Z,12.77
2019-03-10T01:56:57.354Z,9.03
2019-03-10T01:59:31.272Z,6.87
2019-03-10T02:02:11.184Z,8.20
2019-03-10T02:04:44.809Z,6.67
2019-03-10T02:07:18.445Z,11.93
2019-03-10T02:10:01.381Z,13.23
2019-03-10T02:12:34.996Z,14.67
2019-03-10T02:15:14.212Z,6.23
2019-03-10T02:17:47.893Z,10.03
2019-03-10T02:20:37.173Z,9.50
2019-03-10T02:23:10.840Z,15.30
2019-03-10T02:25:44.451Z,20.67
2019-03-10T02:28:21.229Z,11.77
2019-03-10T02:30:54.948Z,15.03
2019-03-10T02:33:41.113Z,14.17
2019-03-10T02:36:14.743Z,7.43
2019-03-10T02:38:49.413Z,13.03
2019-03-10T02:41:23.024Z,12.30
2019-03-10T02:43:56.722Z,13.97
2019-03-10T02:46:48.677Z,20.87
2019-03-10T02:49:22.341Z,11.37
2019-03-10T02:51:55.955Z,14.97
2019-03-10T02:54:29.566Z,14.73
2019-03-10T02:57:03.636Z,11.97
2019-03-10T02:59:43.494Z,15.80
2019-03-10T03:02:17.102Z,11.17
2019-03-10T03:04:50.813Z,16.53
2019-03-10T03:07:24.483Z,18.53
2019-03-10T03:09:58.105Z,13.63
2019-03-10T03:12:31.823Z,15.80
2019-03-10T03:15:06.985Z,12.97
2019-03-10T03:17:41.016Z,11.63
2019-03-10T03:20:15.128Z,21.43
2019-03-10T03:22:48.785Z,16.03
2019-03-10T03:25:22.510Z,15.00
2019-03-10T03:27:56.447Z,23.83
2019-03-10T03:30:30.154Z,19.33
2019-03-10T03:33:03.812Z,12.77
2019-03-10T03:35:46.113Z,16.70
2019-03-10T03:38:25.976Z,12.10
2019-03-10T03:41:08.895Z,22.73
2019-03-10T03:43:42.592Z,18.40
2019-03-10T03:46:16.357Z,14.23
2019-03-10T03:48:56.447Z,14.37
2019-03-10T03:51:30.418Z,15.03
2019-03-10T03:54:04.122Z,20.83
2019-03-10T03:56:46.873Z,15.43
2019-03-10T03:59:20.506Z,8.33
2019-03-10T04:01:55.817Z,16.23
2019-03-10T04:04:29.534Z,10.03
2019-03-10T04:07:03.158Z,9.83
2019-03-10T04:09:36.745Z,17.63
2019-03-10T04:12:10.558Z,11.17
2019-03-10T04:14:44.215Z,16.33
2019-03-10T04:17:25.113Z,19.30
2019-03-10T04:19:58.789Z,19.50
2019-03-10T04:22:32.399Z,18.47
2019-03-10T04:25:12.850Z,12.63
2019-03-10T04:27:46.460Z,15.07
2019-03-10T04:30:20.195Z,19.00
2019-03-10T04:32:53.962Z,7.60
2019-03-10T04:35:27.534Z,9.57
2019-03-10T04:38:01.539Z,12.13
2019-03-10T04:40:35.444Z,16.53
2019-03-10T04:43:09.147Z,13.30
2019-03-10T04:45:42.724Z,7.80
2019-03-10T04:48:16.795Z,12.77
2019-03-10T04:50:57.126Z,13.97
2019-03-10T04:53:31.163Z,12.43
2019-03-10T04:56:06.465Z,15.73
2019-03-10T04:58:44.588Z,11.00
2019-03-10T05:01:18.549Z,16.53
2019-03-10T05:03:52.604Z,10.20
2019-03-10T05:06:26.202Z,16.97
2019-03-10T05:08:59.822Z,13.40
2019-03-10T05:11:42.083Z,17.43
2019-03-10T05:14:15.787Z,10.53
2019-03-10T05:16:49.382Z,11.93
2019-03-10T05:19:31.624Z,19.57
2019-03-10T05:22:05.276Z,9.33
2019-03-10T05:24:39.012Z,17.47
2019-03-10T05:27:30.975Z,21.60
2019-03-10T05:30:07.524Z,11.03
2019-03-10T05:32:41.574Z,5.30
2019-03-10T05:35:27.556Z,5.17
2019-03-10T05:38:01.341Z,7.67
2019-03-10T05:40:53.267Z,6.30
2019-03-10T05:43:26.977Z,8.30
2019-03-10T05:46:00.620Z,7.03
2019-03-10T05:49:04.831Z,8.90
2019-03-10T05:51:58.530Z,7.50
2019-03-10T05:54:32.161Z,11.23
2019-03-10T05:57:10.781Z,11.43
2019-03-10T05:59:44.549Z,10.53
2019-03-10T06:02:18.215Z,11.23
2019-03-10T06:05:00.167Z,9.73
2019-03-10T06:07:34.103Z,22.83
2019-03-10T06:10:07.864Z,13.60
2019-03-10T06:12:47.568Z,19.43
2019-03-10T06:15:21.610Z,23.57
2019-03-10T06:17:55.230Z,20.27
2019-03-10T06:20:35.207Z,18.23
2019-03-10T06:23:08.807Z,16.63
2019-03-10T06:25:50.960Z,15.60
2019-03-10T06:28:24.584Z,13.27
2019-03-10T06:31:00.697Z,20.47
2019-03-10T06:33:34.337Z,12.33
2019-03-10T06:36:07.986Z,21.27
2019-03-10T06:38:49.723Z,14.10
2019-03-10T06:41:23.677Z,17.17
2019-03-10T06:44:02.295Z,20.23
2019-03-10T06:46:36.169Z,19.43
2019-03-10T06:49:13.779Z,20.30
2019-03-10T06:51:47.377Z,16.70
2019-03-10T06:54:21.106Z,13.07
2019-03-10T06:57:02.229Z,15.70
2019-03-10T06:59:35.863Z,10.93
2019-03-10T07:02:12.913Z,14.13
2019-03-10T07:04:46.932Z,15.87
2019-03-10T07:07:27.386Z,19.83
2019-03-10T07:10:01.358Z,13.80
2019-03-10T07:12:37.758Z,14.43
2019-03-10T07:15:13.562Z,10.57
2019-03-10T07:17:47.574Z,16.07
2019-03-10T07:20:27.750Z,10.90
2019-03-10T07:23:02.613Z,10.03
2019-03-10T07:25:36.527Z,14.90
2019-03-10T07:30:58.672Z,16.67
2019-03-10T07:33:43.832Z,16.60
2019-03-10T07:36:19.650Z,14.20
2019-03-10T07:42:15.350Z,14.55
2019-03-10T07:44:53.909Z,19.27
2019-03-10T07:47:30.106Z,17.15
2019-03-10T07:50:08.081Z,11.57
2019-03-10T07:52:46.825Z,13.05
2019-03-10T07:55:37.788Z,12.90
2019-03-10T07:58:16.360Z,9.93
2019-03-10T08:01:14.833Z,13.65
2019-03-10T08:04:02.525Z,12.25
2019-03-10T08:09:35.055Z,10.88
2019-03-10T08:15:09.418Z,11.18
2019-03-10T08:17:48.077Z,15.15
2019-03-10T08:20:26.627Z,12.30
2019-03-10T08:23:02.485Z,11.50
2019-03-10T08:25:42.183Z,8.40
2019-03-10T08:28:37.837Z,10.82
2019-03-10T08:31:35.096Z,9.03
2019-03-10T08:34:14.222Z,9.65
2019-03-10T08:36:52.673Z,13.62
2019-03-10T08:39:28.091Z,9.60
2019-03-10T08:42:21.419Z,11.35
2019-03-10T08:44:59.610Z,10.07
2019-03-10T08:50:36.789Z,12.55
2019-03-10T08:53:12.655Z,8.53
2019-03-10T08:55:48.470Z,9.90
2019-03-10T08:59:00.456Z,8.15
2019-03-10T09:01:39.201Z,10.65
2019-03-10T09:10:05.450Z,8.70
2019-03-10T09:12:40.784Z,12.03
2019-03-10T09:15:43.728Z,8.80
2019-03-10T09:18:39.897Z,16.23
2019-03-10T09:21:15.365Z,12.40
2019-03-10T09:23:50.603Z,8.47
2019-03-10T09:26:48.252Z,13.63
2019-03-10T09:29:35.629Z,10.57
2019-03-10T09:32:27.874Z,9.50
2019-03-10T09:35:12.191Z,11.47
2019-03-10T09:37:47.802Z,9.77
2019-03-10T09:40:29.117Z,14.40
2019-03-10T09:43:10.113Z,9.27
2019-03-10T09:45:47.760Z,14.93
2019-03-10T09:48:29.002Z,11.83
2019-03-10T09:51:20.651Z,12.20
2019-03-10T09:54:07.914Z,6.53
2019-03-10T10:00:00.671Z,8.60
2019-03-10T10:02:58.507Z,10.10
2019-03-10T10:05:33.860Z,15.10
2019-03-10T10:08:37.535Z,11.23
2019-03-10T10:11:12.808Z,8.40
2019-03-10T10:13:48.130Z,13.83
2019-03-10T10:16:35.767Z,21.50
2019-03-10T10:19:29.408Z,18.13
2019-03-10T10:22:23.084Z,10.13
2019-03-10T10:24:58.383Z,9.27
2019-03-10T10:27:46.060Z,9.97
2019-03-10T10:30:28.313Z,10.73
2019-03-10T10:33:06.564Z,13.40
2019-03-10T10:35:54.172Z,9.53
2019-03-10T10:38:29.545Z,15.90
2019-03-10T10:44:01.288Z,9.23
2019-03-10T10:46:53.589Z,9.40
2019-03-10T10:49:45.835Z,7.58
2019-03-10T10:52:32.901Z,9.53
2019-03-10T10:55:10.012Z,10.30
2019-03-10T10:57:51.266Z,9.37
2019-03-10T11:00:33.928Z,8.50
2019-03-10T11:03:26.257Z,6.47
2019-03-10T11:06:01.512Z,8.30
2019-03-10T11:09:07.171Z,7.00
2019-03-10T11:11:42.576Z,7.00
2019-03-10T11:14:17.861Z,6.90
2019-03-10T11:17:24.829Z,5.40
2019-03-10T11:20:15.475Z,8.70
2019-03-10T11:23:05.720Z,8.43
2019-03-10T11:25:58.764Z,7.97
2019-03-10T11:28:49.378Z,4.57
2019-03-10T11:31:37.523Z,6.63
2019-03-10T11:36:59.799Z,7.57
2019-03-10T11:39:56.803Z,7.63
2019-03-10T11:42:53.519Z,10.40
2019-03-10T11:45:28.855Z,8.60
2019-03-10T11:48:04.272Z,7.33
2019-03-10T11:50:55.615Z,4.07
2019-03-10T11:53:50.499Z,11.13
2019-03-10T11:56:47.956Z,8.03
2019-03-10T11:59:36.836Z,11.90
2019-03-10T12:05:20.442Z,7.23
2019-03-10T12:08:13.663Z,8.00
2019-03-10T12:10:47.894Z,5.47
2019-03-10T12:13:22.366Z,6.03
2019-03-10T12:15:56.645Z,6.35
2019-03-10T12:18:30.892Z,6.50
2019-03-10T12:21:05.222Z,5.40
2019-03-10T12:23:51.039Z,5.77
2019-03-10T12:26:25.608Z,6.25
2019-03-10T12:28:59.862Z,6.78
2019-03-10T12:31:34.582Z,6.10
2019-03-10T12:34:09.170Z,7.53
2019-03-10T12:36:46.588Z,3.55
2019-03-10T12:39:20.671Z,4.03
2019-03-10T12:41:58.402Z,0.80
2019-03-10T12:44:30.667Z,5.13
2019-03-10T12:47:04.667Z,3.80
2019-03-10T12:49:38.343Z,6.70
2019-03-10T12:52:11.939Z,7.07
2019-03-10T12:54:45.554Z,5.57
2019-03-10T12:57:19.470Z,5.87
2019-03-10T12:59:58.590Z,8.13
2019-03-10T13:02:32.348Z,10.47
2019-03-10T13:05:08.128Z,7.87
2019-03-10T13:07:51.521Z,5.40
2019-03-10T13:10:25.603Z,9.83
2019-03-10T13:13:00.404Z,7.67
2019-03-10T13:15:34.104Z,5.00
2019-03-10T13:18:07.771Z,8.23
2019-03-10T13:20:41.748Z,4.00
2019-03-10T13:23:15.434Z,4.10
2019-03-10T13:25:49.358Z,3.37
2019-03-10T13:28:23.637Z,2.85
2019-03-10T13:31:00.399Z,4.93
2019-03-10T13:33:34.383Z,7.00
2019-03-10T13:36:08.652Z,3.10
2019-03-10T13:38:42.269Z,6.87
2019-03-10T13:41:16.198Z,7.30
2019-03-10T13:43:52.970Z,4.73
2019-03-10T13:46:26.636Z,5.00
2019-03-10T13:49:00.328Z,8.23
2019-03-10T13:51:49.134Z,7.87
2019-03-10T13:54:23.083Z,5.43
2019-03-10T13:56:58.109Z,3.03
2019-03-10T13:59:32.029Z,7.77
2019-03-10T14:02:17.805Z,4.93
2019-03-10T14:04:51.777Z,5.63
2019-03-10T14:07:37.605Z,5.67
2019-03-10T14:10:11.963Z,7.00
2019-03-10T14:12:45.560Z,5.20
2019-03-10T14:15:19.325Z,3.20
2019-03-10T14:17:52.978Z,5.97
2019-03-10T14:20:26.665Z,8.07
2019-03-10T14:23:00.250Z,7.97
2019-03-10T14:25:54.890Z,6.87
2019-03-10T14:28:28.636Z,8.57
2019-03-10T14:31:02.345Z,9.10
2019-03-10T14:33:57.490Z,6.20
2019-03-10T14:36:31.101Z,10.50
2019-03-10T14:39:07.021Z,7.10
2019-03-10T14:41:40.685Z,7.23
2019-03-10T14:44:14.331Z,8.70
2019-03-10T14:46:48.395Z,6.77
2019-03-10T14:49:23.499Z,9.40
2019-03-10T14:51:57.822Z,6.97
2019-03-10T14:54:31.499Z,8.63
2019-03-10T14:57:05.645Z,10.50
2019-03-10T14:59:39.233Z,5.73
2019-03-10T15:02:12.843Z,4.17
2019-03-10T15:04:46.426Z,7.20
2019-03-10T15:07:29.231Z,4.83
2019-03-10T15:10:03.138Z,5.43
2019-03-10T15:12:36.849Z,7.10
2019-03-10T15:15:22.651Z,6.23
2019-03-10T15:17:59.332Z,11.00
2019-03-10T15:20:33.088Z,6.53
2019-03-10T15:23:22.239Z,10.43
2019-03-10T15:25:56.007Z,9.03
2019-03-10T15:28:29.691Z,11.37
2019-03-10T15:31:03.457Z,6.53
2019-03-10T15:33:37.040Z,9.30
2019-03-10T15:36:19.764Z,7.07
2019-03-10T15:38:58.448Z,8.67
2019-03-10T15:41:32.141Z,12.40
2019-03-10T15:44:05.760Z,9.57
2019-03-10T15:46:54.490Z,10.50
2019-03-10T15:49:28.093Z,9.70
2019-03-10T15:52:01.685Z,8.03
2019-03-10T15:54:44.514Z,8.93
2019-03-10T15:57:18.455Z,6.93
2019-03-10T15:59:52.143Z,9.97
2019-03-10T16:02:44.244Z,6.70
2019-03-10T16:05:18.019Z,7.43
2019-03-10T16:08:06.833Z,7.07
2019-03-10T16:10:40.528Z,9.53
2019-03-10T16:13:14.640Z,9.83
2019-03-10T16:15:57.659Z,8.87
2019-03-10T16:18:31.344Z,4.73
2019-03-10T16:21:05.126Z,10.70
2019-03-10T16:23:39.180Z,9.23
2019-03-10T16:26:13.083Z,14.77
2019-03-10T16:28:46.714Z,8.30
2019-03-10T16:31:20.465Z,7.97
2019-03-10T16:33:54.269Z,5.23
2019-03-10T16:36:27.907Z,9.20
2019-03-10T16:39:01.914Z,10.00
2019-03-10T16:41:35.611Z,10.83
2019-03-10T16:44:09.396Z,8.50
2019-03-10T16:46:43.343Z,4.63
2019-03-10T16:49:16.916Z,6.37
2019-03-10T16:51:50.960Z,8.70
2019-03-10T16:54:43.204Z,6.47
2019-03-10T16:57:17.027Z,4.07
2019-03-10T16:59:53.053Z,7.20
2019-03-10T17:02:26.676Z,10.30
2019-03-10T17:05:22.071Z,9.87
2019-03-10T17:07:55.776Z,9.43
2019-03-10T17:10:29.402Z,11.63
2019-03-10T17:13:15.222Z,5.87
2019-03-10T17:15:48.989Z,4.30
2019-03-10T17:18:37.755Z,9.10
2019-03-10T17:21:11.381Z,5.97
2019-03-10T17:23:54.342Z,7.70
2019-03-10T17:26:27.957Z,7.10
2019-03-10T17:29:01.633Z,10.80
2019-03-10T17:31:37.684Z,5.17
2019-03-10T17:34:11.351Z,6.00
2019-03-10T17:36:45.427Z,7.37
2019-03-10T17:39:19.082Z,7.77
2019-03-10T17:41:52.793Z,12.30
2019-03-10T17:44:26.480Z,6.30
2019-03-10T17:47:00.078Z,7.77
2019-03-10T17:49:33.762Z,6.63
2019-03-10T17:52:14.697Z,7.63
2019-03-10T17:54:48.613Z,5.83
2019-03-10T17:57:22.278Z,7.50
2019-03-10T17:59:55.988Z,9.37
2019-03-10T18:02:29.647Z,7.90
2019-03-10T18:05:03.410Z,12.27
2019-03-10T18:07:37.238Z,11.73
2019-03-10T18:10:18.486Z,13.33
2019-03-10T18:12:52.173Z,9.77
2019-03-10T18:15:25.910Z,6.67
2019-03-10T18:17:59.526Z,5.20
2019-03-10T18:20:33.194Z,6.43
2019-03-10T18:23:06.942Z,5.57
2019-03-10T18:25:40.635Z,7.27
2019-03-10T18:28:26.109Z,9.80
2019-03-10T18:30:59.784Z,6.93
2019-03-10T18:33:33.549Z,6.77
2019-03-10T18:36:07.231Z,4.57
2019-03-10T18:38:40.937Z,7.27
2019-03-10T18:41:20.893Z,3.20
2019-03-10T18:43:54.505Z,9.70
2019-03-10T18:46:40.999Z,8.43
2019-03-10T18:49:14.615Z,7.47
2019-03-10T18:52:03.394Z,6.73
2019-03-10T18:54:37.024Z,8.13
2019-03-10T18:57:11.672Z,5.90
2019-03-10T18:59:47.079Z,5.30
2019-03-10T19:02:20.677Z,8.87
2019-03-10T19:04:54.264Z,6.60
2019-03-10T19:07:28.001Z,7.27
2019-03-10T19:10:01.612Z,7.93
2019-03-10T19:12:38.351Z,7.73
2019-03-10T19:15:14.483Z,7.00
2019-03-10T19:17:48.170Z,10.00
2019-03-10T19:20:21.853Z,6.50
2019-03-10T19:22:55.468Z,6.97
2019-03-10T19:25:32.371Z,8.10
2019-03-10T19:28:06.056Z,6.67
2019-03-10T19:30:39.840Z,8.60
2019-03-10T19:33:13.570Z,7.10
2019-03-10T19:35:47.252Z,9.83
2019-03-10T19:38:42.632Z,6.67
2019-03-10T19:41:16.268Z,10.83
2019-03-10T19:43:52.944Z,8.30
2019-03-10T19:46:26.559Z,9.60
2019-03-10T19:49:00.291Z,3.83
2019-03-10T19:51:43.059Z,5.33
2019-03-10T19:54:16.642Z,8.23
2019-03-10T19:56:50.272Z,6.40
2019-03-10T19:59:23.860Z,7.80
2019-03-10T20:02:01.424Z,8.10
2019-03-10T20:04:35.017Z,8.00
2019-03-10T20:07:08.628Z,6.77
2019-03-10T20:09:42.319Z,7.47
2019-03-10T20:12:27.963Z,8.00
2019-03-10T20:15:01.680Z,11.90
2019-03-10T20:17:44.610Z,7.83
2019-03-10T20:20:20.931Z,15.33
2019-03-10T20:22:54.667Z,5.87
2019-03-10T20:25:28.299Z,10.63
2019-03-10T20:28:02.031Z,8.47
2019-03-10T20:30:35.761Z,8.07
2019-03-10T20:33:18.495Z,11.50
2019-03-10T20:35:52.162Z,9.67
2019-03-10T20:38:25.844Z,11.17
2019-03-10T20:40:59.459Z,8.47
2019-03-10T20:43:33.190Z,7.67
2019-03-10T20:46:21.955Z,6.90
2019-03-10T20:48:55.567Z,9.70
2019-03-10T20:51:32.603Z,7.27
2019-03-10T20:54:06.289Z,9.53
2019-03-10T20:56:39.881Z,6.77
2019-03-10T20:59:13.590Z,9.83
2019-03-10T21:01:47.349Z,6.27
2019-03-10T21:04:25.141Z,14.43
2019-03-10T21:06:58.769Z,7.73
2019-03-10T21:09:32.384Z,11.70
2019-03-10T21:12:06.129Z,10.60
2019-03-10T21:14:39.722Z,4.23
2019-03-10T21:17:13.335Z,5.87
2019-03-10T21:19:46.914Z,9.40
2019-03-10T21:22:21.133Z,7.47
2019-03-10T21:24:54.878Z,9.00
2019-03-10T21:27:28.502Z,7.03
2019-03-10T21:30:02.298Z,8.53
2019-03-10T21:32:35.927Z,8.90
2019-03-10T21:35:17.593Z,7.50
2019-03-10T21:37:44.982Z,7.97
2019-03-10T21:40:26.371Z,2.27
2019-03-10T21:43:00.026Z,5.07
2019-03-10T21:45:34.183Z,12.93
2019-03-10T21:48:07.930Z,7.00
2019-03-10T21:50:41.637Z,6.63
2019-03-10T21:53:15.293Z,3.90
2019-03-10T21:55:49.016Z,7.90
2019-03-10T21:58:22.702Z,4.20
2019-03-10T22:00:56.342Z,6.10
2019-03-10T22:03:29.987Z,7.70
2019-03-10T22:06:03.696Z,8.97
2019-03-10T22:08:37.353Z,10.57
2019-03-10T22:11:11.101Z,7.70
2019-03-10T22:13:46.807Z,6.17
2019-03-10T22:16:19.974Z,7.20
2019-03-10T22:18:53.586Z,8.10
2019-03-10T22:21:27.201Z,5.23
2019-03-10T22:24:03.131Z,3.17
2019-03-10T22:26:36.046Z,6.90
2019-03-10T22:29:09.734Z,5.63
2019-03-10T22:31:43.385Z,5.80
2019-03-10T22:34:17.074Z,9.40
2019-03-10T22:36:50.746Z,5.80
2019-03-10T22:39:24.329Z,9.67
2019-03-10T22:41:57.947Z,11.33
2019-03-10T22:44:31.610Z,7.30
2019-03-10T22:47:05.362Z,6.20
2019-03-10T22:49:38.951Z,5.67
2019-03-10T22:52:12.660Z,7.23
2019-03-10T22:54:46.315Z,12.40
2019-03-10T22:57:23.449Z,10.57
2019-03-10T22:59:57.417Z,3.50
2019-03-10T23:02:43.067Z,6.43
2019-03-10T23:05:16.727Z,10.43
2019-03-10T23:07:54.344Z,4.83
2019-03-10T23:10:27.986Z,9.10
2019-03-10T23:13:05.096Z,7.47
2019-03-10T23:15:38.773Z,6.20
2019-03-10T23:18:12.519Z,6.20
2019-03-10T23:20:58.237Z,6.87
2019-03-10T23:23:31.874Z,3.17
2019-03-10T23:26:05.568Z,5.60
2019-03-10T23:28:45.465Z,7.43
2019-03-10T23:31:19.089Z,8.30
2019-03-10T23:33:52.672Z,7.93
2019-03-10T23:36:34.508Z,5.10
2019-03-10T23:39:08.176Z,6.80
2019-03-10T23:41:41.792Z,5.43
2019-03-10T23:44:15.417Z,8.50
2019-03-10T23:46:49.122Z,6.87
2019-03-10T23:49:22.829Z,7.40
2019-03-10T23:51:59.444Z,5.10
2019-03-10T23:54:33.137Z,4.70
2019-03-10T23:57:06.713Z,7.10
2019-03-10T23:59:40.404Z,9.17
